createdAt,value
2022-08-02T00:00:10.002Z,8.40
2022-08-02T00:01:10.045Z,7.10
2022-08-02T00:02:10.215Z,6.60
2022-08-02T00:03:09.982Z,7.60
2022-08-02T00:04:09.984Z,5.70
2022-08-02T00:05:09.945Z,12.10
2022-08-02T00:06:09.934Z,5.60
2022-08-02T00:07:09.924Z,4.50
2022-08-02T00:08:09.922Z,4.90
2022-08-02T00:09:09.925Z,8.40
2022-08-02T00:10:09.907Z,7.10
2022-08-02T00:11:09.886Z,3.00
2022-08-02T00:12:10.139Z,3.80
2022-08-02T00:13:09.875Z,5.50
2022-08-02T00:14:09.879Z,5.40
2022-08-02T00:15:09.848Z,3.40
2022-08-02T00:16:10.829Z,3.50
2022-08-02T00:17:10.817Z,7.50
2022-08-02T00:18:09.810Z,5.10
2022-08-02T00:19:09.821Z,7.70
2022-08-02T00:20:09.799Z,6.60
2022-08-02T00:21:09.780Z,5.70
2022-08-02T00:22:10.113Z,5.50
2022-08-02T00:23:09.760Z,8.00
2022-08-02T00:24:29.031Z,3.40
2022-08-02T00:25:10.734Z,6.80
2022-08-02T00:26:09.736Z,8.30
2022-08-02T00:27:09.830Z,4.30
2022-08-02T00:28:09.702Z,5.10
2022-08-02T00:29:09.734Z,5.80
2022-08-02T00:30:09.685Z,8.20
2022-08-02T00:31:09.687Z,8.90
2022-08-02T00:32:09.955Z,7.10
2022-08-02T00:33:09.656Z,10.70
2022-08-02T00:34:28.573Z,8.30
2022-08-02T00:35:10.655Z,7.70
2022-08-02T00:36:09.625Z,8.80
2022-08-02T00:37:09.619Z,8.00
2022-08-02T00:38:09.617Z,6.40
2022-08-02T00:39:35.356Z,5.50
2022-08-02T00:40:10.615Z,7.20
2022-08-02T00:41:09.568Z,5.80
2022-08-02T00:42:09.958Z,8.30
2022-08-02T00:43:09.548Z,7.20
2022-08-02T00:44:09.538Z,6.50
2022-08-02T00:45:09.551Z,10.60
2022-08-02T00:46:09.528Z,6.00
2022-08-02T00:47:09.518Z,7.10
2022-08-02T00:48:09.500Z,9.10
2022-08-02T00:49:09.541Z,7.20
2022-08-02T00:50:09.506Z,6.50
2022-08-02T00:51:09.467Z,5.40
2022-08-02T00:52:09.659Z,6.50
2022-08-02T00:53:09.443Z,6.30
2022-08-02T00:54:09.444Z,7.90
2022-08-02T00:55:09.442Z,6.10
2022-08-02T00:56:09.413Z,6.00
2022-08-02T00:57:09.399Z,6.60
2022-08-02T00:58:09.405Z,6.20
2022-08-02T00:59:09.373Z,6.30
2022-08-02T01:00:09.393Z,7.20
2022-08-02T01:01:09.420Z,7.60
2022-08-02T01:02:09.816Z,8.50
2022-08-02T01:03:09.346Z,6.40
2022-08-02T01:04:09.326Z,4.60
2022-08-02T01:05:09.343Z,7.90
2022-08-02T01:06:12.314Z,8.50
2022-08-02T01:07:12.072Z,5.90
2022-08-02T01:08:09.290Z,6.80
2022-08-02T01:09:09.279Z,5.20
2022-08-02T01:10:09.289Z,5.70
2022-08-02T01:11:09.252Z,5.20
2022-08-02T01:12:09.670Z,8.10
2022-08-02T01:13:09.238Z,5.80
2022-08-02T01:14:09.224Z,7.50
2022-08-02T01:15:09.230Z,5.90
2022-08-02T01:16:09.204Z,4.40
2022-08-02T01:17:09.192Z,5.20
2022-08-02T01:18:09.185Z,5.60
2022-08-02T01:19:09.171Z,5.20
2022-08-02T01:20:10.185Z,6.30
2022-08-02T01:21:09.141Z,10.00
2022-08-02T01:22:09.339Z,3.40
2022-08-02T01:23:09.125Z,6.20
2022-08-02T01:24:09.374Z,5.20
2022-08-02T01:25:09.125Z,5.40
2022-08-02T01:26:09.093Z,5.00
2022-08-02T01:27:09.075Z,4.10
2022-08-02T01:28:09.073Z,7.90
2022-08-02T01:29:09.055Z,2.30
2022-08-02T01:30:09.075Z,6.80
2022-08-02T01:31:09.039Z,3.40
2022-08-02T01:32:09.296Z,7.00
2022-08-02T01:33:09.026Z,5.10
2022-08-02T01:34:09.019Z,3.00
2022-08-02T01:35:09.033Z,4.60
2022-08-02T01:36:08.989Z,6.80
2022-08-02T01:37:08.968Z,6.30
2022-08-02T01:38:08.968Z,7.70
2022-08-02T01:39:08.959Z,4.10
2022-08-02T01:40:08.969Z,4.40
2022-08-02T01:41:08.929Z,3.50
2022-08-02T01:42:09.161Z,8.80
2022-08-02T01:43:08.911Z,3.60
2022-08-02T01:44:08.908Z,5.20
2022-08-02T01:45:08.911Z,5.80
2022-08-02T01:46:08.881Z,3.50
2022-08-02T01:47:08.874Z,2.20
2022-08-02T01:48:08.860Z,7.50
2022-08-02T01:49:09.626Z,5.50
2022-08-02T01:50:08.882Z,4.90
2022-08-02T01:51:08.912Z,8.70
2022-08-02T01:52:09.185Z,6.20
2022-08-02T01:53:08.803Z,4.30
2022-08-02T01:54:08.796Z,3.30
2022-08-02T01:55:10.061Z,12.00
2022-08-02T01:56:09.765Z,5.60
2022-08-02T01:57:08.765Z,3.70
2022-08-02T01:58:08.747Z,5.10
2022-08-02T01:59:08.735Z,7.30
2022-08-02T02:00:08.747Z,7.40
2022-08-02T02:01:08.749Z,4.20
2022-08-02T02:02:10.052Z,9.00
2022-08-02T02:03:08.687Z,4.80
2022-08-02T02:04:08.698Z,4.60
2022-08-02T02:05:08.698Z,5.70
2022-08-02T02:06:08.667Z,6.40
2022-08-02T02:07:08.648Z,8.50
2022-08-02T02:08:08.640Z,5.60
2022-08-02T02:09:08.630Z,4.70
2022-08-02T02:10:08.639Z,6.70
2022-08-02T02:12:06.322Z,5.30
2022-08-02T02:12:13.505Z,4.40
2022-08-02T02:13:08.582Z,4.40
2022-08-02T02:14:08.598Z,3.20
2022-08-02T02:15:08.583Z,6.70
2022-08-02T02:16:08.552Z,3.60
2022-08-02T02:17:08.542Z,3.40
2022-08-02T02:18:12.615Z,5.60
2022-08-02T02:19:08.515Z,4.50
2022-08-02T02:20:08.557Z,5.80
2022-08-02T02:21:08.526Z,3.40
2022-08-02T02:22:08.897Z,9.60
2022-08-02T02:23:08.476Z,5.30
2022-08-02T02:24:11.849Z,5.50
2022-08-02T02:25:08.474Z,6.50
2022-08-02T02:26:08.449Z,4.50
2022-08-02T02:27:08.436Z,10.50
2022-08-02T02:28:08.427Z,6.70
2022-08-02T02:29:08.408Z,6.10
2022-08-02T02:30:08.428Z,4.90
2022-08-02T02:31:08.398Z,5.00
2022-08-02T02:32:08.726Z,5.60
2022-08-02T02:33:08.368Z,5.90
2022-08-02T02:34:08.358Z,4.20
2022-08-02T02:35:08.371Z,8.40
2022-08-02T02:36:08.329Z,7.10
2022-08-02T02:37:08.333Z,8.10
2022-08-02T02:38:08.319Z,4.80
2022-08-02T02:39:13.415Z,7.20
2022-08-02T02:40:09.313Z,4.00
2022-08-02T02:41:08.282Z,3.50
2022-08-02T02:42:08.608Z,4.40
2022-08-02T02:43:08.277Z,6.10
2022-08-02T02:44:08.254Z,4.70
2022-08-02T02:45:08.246Z,3.80
2022-08-02T02:46:08.243Z,8.70
2022-08-02T02:47:08.223Z,6.20
2022-08-02T02:48:08.222Z,4.20
2022-08-02T02:49:08.224Z,6.00
2022-08-02T02:50:08.184Z,4.80
2022-08-02T02:51:08.355Z,5.60
2022-08-02T02:52:09.445Z,8.40
2022-08-02T02:53:08.159Z,8.60
2022-08-02T02:54:33.515Z,3.00
2022-08-02T02:55:09.136Z,4.90
2022-08-02T02:56:08.148Z,7.60
2022-08-02T02:57:08.117Z,4.20
2022-08-02T02:58:08.098Z,8.50
2022-08-02T02:59:08.088Z,4.30
2022-08-02T03:00:08.079Z,6.00
2022-08-02T03:01:08.144Z,6.90
2022-08-02T03:02:08.059Z,4.00
2022-08-02T03:03:08.050Z,9.60
2022-08-02T03:04:08.039Z,4.40
2022-08-02T03:05:08.041Z,2.40
2022-08-02T03:06:15.049Z,4.30
2022-08-02T03:07:09.010Z,3.10
2022-08-02T03:08:08.000Z,8.70
2022-08-02T03:09:07.996Z,4.60
2022-08-02T03:10:07.984Z,5.10
2022-08-02T03:11:08.002Z,3.50
2022-08-02T03:12:08.139Z,3.20
2022-08-02T03:13:07.968Z,3.70
2022-08-02T03:14:07.932Z,5.30
2022-08-02T03:15:07.953Z,5.60
2022-08-02T03:16:07.933Z,4.80
2022-08-02T03:17:07.904Z,5.50
2022-08-02T03:18:07.894Z,7.70
2022-08-02T03:19:07.885Z,8.20
2022-08-02T03:20:07.876Z,4.80
2022-08-02T03:21:07.903Z,7.60
2022-08-02T03:22:07.922Z,6.40
2022-08-02T03:23:07.846Z,4.50
2022-08-02T03:24:07.836Z,6.80
2022-08-02T03:25:07.829Z,5.50
2022-08-02T03:26:07.828Z,7.00
2022-08-02T03:27:07.807Z,5.60
2022-08-02T03:28:07.798Z,4.20
2022-08-02T03:29:09.819Z,3.90
2022-08-02T03:30:07.770Z,4.90
2022-08-02T03:31:07.738Z,6.70
2022-08-02T03:32:07.770Z,5.80
2022-08-02T03:33:07.753Z,8.10
2022-08-02T03:34:07.740Z,6.00
2022-08-02T03:35:07.721Z,4.60
2022-08-02T03:36:07.733Z,5.40
2022-08-02T03:37:07.701Z,10.10
2022-08-02T03:38:08.503Z,6.70
2022-08-02T03:39:07.682Z,4.80
2022-08-02T03:40:07.666Z,4.40
2022-08-02T03:41:07.684Z,8.90
2022-08-02T03:42:07.829Z,5.10
2022-08-02T03:43:07.643Z,6.70
2022-08-02T03:44:07.625Z,7.70
2022-08-02T03:45:08.864Z,5.20
2022-08-02T03:46:07.593Z,2.40
2022-08-02T03:47:07.545Z,4.50
2022-08-02T03:48:34.897Z,6.70
2022-08-02T03:49:08.689Z,6.70
2022-08-02T03:50:07.557Z,4.20
2022-08-02T03:51:07.577Z,4.20
2022-08-02T03:52:07.546Z,4.70
2022-08-02T03:53:07.488Z,5.40
2022-08-02T03:54:08.469Z,3.10
2022-08-02T03:55:07.469Z,3.30
2022-08-02T03:56:07.476Z,7.00
2022-08-02T03:57:07.442Z,7.40
2022-08-02T03:58:07.419Z,5.00
2022-08-02T03:59:07.417Z,3.80
2022-08-02T04:00:07.412Z,5.30
2022-08-02T04:01:07.486Z,4.50
2022-08-02T04:02:07.512Z,6.00
2022-08-02T04:03:07.372Z,5.80
2022-08-02T04:04:07.363Z,7.30
2022-08-02T04:05:07.360Z,6.40
2022-08-02T04:06:07.365Z,7.30
2022-08-02T04:07:07.812Z,5.90
2022-08-02T04:08:35.797Z,5.00
2022-08-02T04:09:08.313Z,8.00
2022-08-02T04:10:07.295Z,7.30
2022-08-02T04:11:07.314Z,4.20
2022-08-02T04:12:07.326Z,5.00
2022-08-02T04:13:07.266Z,7.50
2022-08-02T04:14:07.268Z,9.40
2022-08-02T04:15:07.248Z,6.50
2022-08-02T04:16:07.256Z,11.60
2022-08-02T04:17:07.226Z,8.30
2022-08-02T04:18:07.207Z,11.10
2022-08-02T04:19:07.208Z,11.20
2022-08-02T04:20:07.196Z,7.40
2022-08-02T04:21:07.199Z,14.70
2022-08-02T04:22:07.171Z,7.70
2022-08-02T04:23:07.159Z,9.40
2022-08-02T04:24:07.149Z,8.70
2022-08-02T04:25:07.139Z,11.50
2022-08-02T04:26:07.908Z,8.90
2022-08-02T04:27:33.486Z,7.60
2022-08-02T04:28:17.379Z,6.90
2022-08-02T04:29:08.111Z,8.70
2022-08-02T04:30:07.095Z,6.70
2022-08-02T04:31:07.103Z,8.30
2022-08-02T04:32:07.061Z,5.50
2022-08-02T04:33:07.052Z,10.00
2022-08-02T04:34:07.044Z,7.60
2022-08-02T04:35:22.484Z,9.20
2022-08-02T04:36:08.048Z,5.90
2022-08-02T04:37:07.015Z,6.10
2022-08-02T04:38:09.584Z,9.30
2022-08-02T04:39:06.994Z,6.60
2022-08-02T04:40:06.985Z,9.10
2022-08-02T04:41:06.995Z,6.00
2022-08-02T04:42:06.964Z,5.10
2022-08-02T04:43:06.956Z,5.80
2022-08-02T04:44:06.936Z,9.90
2022-08-02T04:45:06.936Z,7.30
2022-08-02T04:46:06.939Z,5.50
2022-08-02T04:47:07.095Z,5.20
2022-08-02T04:48:06.935Z,9.20
2022-08-02T04:49:06.937Z,5.70
2022-08-02T04:50:06.879Z,8.60
2022-08-02T04:51:06.889Z,10.50
2022-08-02T04:52:06.857Z,11.70
2022-08-02T04:53:06.848Z,5.10
2022-08-02T04:54:09.221Z,7.60
2022-08-02T04:55:06.874Z,11.00
2022-08-02T04:56:06.841Z,6.60
2022-08-02T04:57:06.809Z,8.30
2022-08-02T04:58:23.752Z,5.90
2022-08-02T04:59:07.797Z,7.10
2022-08-02T05:00:06.773Z,8.50
2022-08-02T05:01:06.865Z,7.20
2022-08-02T05:02:06.754Z,6.50
2022-08-02T05:03:06.743Z,6.30
2022-08-02T05:04:06.724Z,10.70
2022-08-02T05:05:10.145Z,8.70
2022-08-02T05:06:18.629Z,11.70
2022-08-02T05:07:07.695Z,8.60
2022-08-02T05:08:06.684Z,11.30
2022-08-02T05:09:06.686Z,12.00
2022-08-02T05:10:06.664Z,10.70
2022-08-02T05:11:06.676Z,8.10
2022-08-02T05:12:06.646Z,8.30
2022-08-02T05:13:06.647Z,9.60
2022-08-02T05:14:06.630Z,10.20
2022-08-02T05:15:06.617Z,13.10
2022-08-02T05:16:06.627Z,10.10
2022-08-02T05:17:06.608Z,9.50
2022-08-02T05:18:06.589Z,11.50
2022-08-02T05:19:06.578Z,15.50
2022-08-02T05:20:06.560Z,13.00
2022-08-02T05:21:06.581Z,13.20
2022-08-02T05:22:06.541Z,9.70
2022-08-02T05:23:06.544Z,12.80
2022-08-02T05:24:06.521Z,12.30
2022-08-02T05:25:06.512Z,11.30
2022-08-02T05:26:06.521Z,11.50
2022-08-02T05:27:16.932Z,8.00
2022-08-02T05:28:11.473Z,9.90
2022-08-02T05:29:06.481Z,12.20
2022-08-02T05:30:06.453Z,9.90
2022-08-02T05:31:06.454Z,9.80
2022-08-02T05:32:07.498Z,9.60
2022-08-02T05:33:06.444Z,9.60
2022-08-02T05:34:11.358Z,9.80
2022-08-02T05:35:07.407Z,11.20
2022-08-02T05:36:06.397Z,13.70
2022-08-02T05:37:09.691Z,9.20
2022-08-02T05:38:10.071Z,9.60
2022-08-02T05:39:06.377Z,12.10
2022-08-02T05:40:12.660Z,12.20
2022-08-02T05:41:07.348Z,11.30
2022-08-02T05:42:06.376Z,8.40
2022-08-02T05:43:06.331Z,8.90
2022-08-02T05:44:06.308Z,11.90
2022-08-02T05:45:06.301Z,12.10
2022-08-02T05:46:06.289Z,13.90
2022-08-02T05:47:06.301Z,11.40
2022-08-02T05:48:06.271Z,12.50
2022-08-02T05:49:06.306Z,18.60
2022-08-02T05:50:06.253Z,11.90
2022-08-02T05:51:06.244Z,9.80
2022-08-02T05:52:06.252Z,11.20
2022-08-02T05:53:06.231Z,15.30
2022-08-02T05:54:06.202Z,11.70
2022-08-02T05:55:06.203Z,9.20
2022-08-02T05:56:08.606Z,13.10
2022-08-02T05:57:06.204Z,13.80
2022-08-02T05:58:06.176Z,8.60
2022-08-02T05:59:06.161Z,10.50
2022-08-02T06:00:06.145Z,14.30
2022-08-02T06:01:06.138Z,11.80
2022-08-02T06:02:06.202Z,14.40
2022-08-02T06:03:06.116Z,13.00
2022-08-02T06:04:06.097Z,15.50
2022-08-02T06:05:06.096Z,12.60
2022-08-02T06:06:06.076Z,16.30
2022-08-02T06:07:06.094Z,12.20
2022-08-02T06:08:07.658Z,12.50
2022-08-02T06:09:06.048Z,13.20
2022-08-02T06:10:06.038Z,15.90
2022-08-02T06:11:06.029Z,10.80
2022-08-02T06:12:06.038Z,11.80
2022-08-02T06:13:06.015Z,14.70
2022-08-02T06:14:05.988Z,11.70
2022-08-02T06:15:05.980Z,10.40
2022-08-02T06:16:05.969Z,11.30
2022-08-02T06:17:06.988Z,9.70
2022-08-02T06:18:05.953Z,10.70
2022-08-02T06:19:05.950Z,10.70
2022-08-02T06:20:05.921Z,11.40
2022-08-02T06:22:34.891Z,14.40
2022-08-02T06:22:42.238Z,13.00
2022-08-02T06:23:10.748Z,14.40
2022-08-02T06:24:06.886Z,10.70
2022-08-02T06:25:06.339Z,9.90
2022-08-02T06:26:05.864Z,10.80
2022-08-02T06:27:05.878Z,7.80
2022-08-02T06:28:11.447Z,8.80
2022-08-02T06:29:06.836Z,8.40
2022-08-02T06:30:05.816Z,10.40
2022-08-02T06:31:05.821Z,8.30
2022-08-02T06:32:05.817Z,9.90
2022-08-02T06:33:05.798Z,8.50
2022-08-02T06:34:05.777Z,10.10
2022-08-02T06:35:05.767Z,11.00
2022-08-02T06:36:05.757Z,11.80
2022-08-02T06:37:05.787Z,10.50
2022-08-02T06:38:05.727Z,11.20
2022-08-02T06:39:05.723Z,16.20
2022-08-02T06:40:05.711Z,11.80
2022-08-02T06:41:05.706Z,13.20
2022-08-02T06:42:05.711Z,8.50
2022-08-02T06:43:05.690Z,9.10
2022-08-02T06:44:33.792Z,10.60
2022-08-02T06:45:06.662Z,11.50
2022-08-02T06:46:57.069Z,14.30
2022-08-02T06:47:11.241Z,10.80
2022-08-02T06:48:06.622Z,11.30
2022-08-02T06:49:05.715Z,9.90
2022-08-02T06:50:05.678Z,11.90
2022-08-02T06:51:05.584Z,12.50
2022-08-02T06:52:05.604Z,15.20
2022-08-02T06:53:05.576Z,12.40
2022-08-02T06:54:05.555Z,11.60
2022-08-02T06:55:05.548Z,14.00
2022-08-02T06:56:07.139Z,12.50
2022-08-02T06:57:05.546Z,11.20
2022-08-02T06:58:05.516Z,12.60
2022-08-02T06:59:06.179Z,14.80
2022-08-02T07:00:05.497Z,14.50
2022-08-02T07:01:05.512Z,14.10
2022-08-02T07:02:05.497Z,13.00
2022-08-02T07:03:05.457Z,15.20
2022-08-02T07:04:05.449Z,10.50
2022-08-02T07:05:05.446Z,14.80
2022-08-02T07:06:05.429Z,11.90
2022-08-02T07:07:05.459Z,16.60
2022-08-02T07:08:05.410Z,17.50
2022-08-02T07:09:21.831Z,15.50
2022-08-02T07:10:06.390Z,17.70
2022-08-02T07:11:05.371Z,18.60
2022-08-02T07:12:05.425Z,17.40
2022-08-02T07:13:05.353Z,14.10
2022-08-02T07:14:05.351Z,17.10
2022-08-02T07:15:05.333Z,16.40
2022-08-02T07:16:05.326Z,14.80
2022-08-02T07:17:05.412Z,21.70
2022-08-02T07:18:05.304Z,16.20
2022-08-02T07:19:05.284Z,17.20
2022-08-02T07:20:05.285Z,17.30
2022-08-02T07:21:05.264Z,14.10
2022-08-02T07:22:05.400Z,18.60
2022-08-02T07:23:05.245Z,18.70
2022-08-02T07:24:05.237Z,19.20
2022-08-02T07:25:05.226Z,11.50
2022-08-02T07:26:06.049Z,12.80
2022-08-02T07:27:13.147Z,16.60
2022-08-02T07:28:06.199Z,16.30
2022-08-02T07:29:05.196Z,12.50
2022-08-02T07:30:05.176Z,13.10
2022-08-02T07:31:05.159Z,16.50
2022-08-02T07:32:05.352Z,13.70
2022-08-02T07:33:05.138Z,13.20
2022-08-02T07:34:05.140Z,16.10
2022-08-02T07:35:06.879Z,19.00
2022-08-02T07:36:05.489Z,17.00
2022-08-02T07:37:05.391Z,17.30
2022-08-02T07:38:05.094Z,16.60
2022-08-02T07:39:05.081Z,13.90
2022-08-02T07:40:08.796Z,15.80
2022-08-02T07:41:06.052Z,19.10
2022-08-02T07:42:05.369Z,16.20
2022-08-02T07:43:05.033Z,17.90
2022-08-02T07:44:05.031Z,14.50
2022-08-02T07:45:05.025Z,14.40
2022-08-02T07:46:05.003Z,16.20
2022-08-02T07:47:05.013Z,14.00
2022-08-02T07:48:04.985Z,11.60
2022-08-02T07:49:05.064Z,11.50
2022-08-02T07:50:04.968Z,10.90
2022-08-02T07:51:04.946Z,8.60
2022-08-02T07:52:04.966Z,17.10
2022-08-02T07:53:04.927Z,14.90
2022-08-02T07:54:05.079Z,8.50
2022-08-02T07:55:04.911Z,12.20
2022-08-02T07:56:04.908Z,13.30
2022-08-02T07:57:04.908Z,11.90
2022-08-02T07:58:04.878Z,19.60
2022-08-02T07:59:04.867Z,12.80
2022-08-02T08:00:04.860Z,12.70
2022-08-02T08:01:04.910Z,13.50
2022-08-02T08:02:04.958Z,16.50
2022-08-02T08:03:04.822Z,8.90
2022-08-02T08:04:04.823Z,14.10
2022-08-02T08:05:04.801Z,14.00
2022-08-02T08:06:04.792Z,12.40
2022-08-02T08:07:04.802Z,8.60
2022-08-02T08:08:04.776Z,14.60
2022-08-02T08:09:04.773Z,9.60
2022-08-02T08:10:04.756Z,12.70
2022-08-02T08:11:04.742Z,9.20
2022-08-02T08:12:04.757Z,11.50
2022-08-02T08:13:04.724Z,13.10
2022-08-02T08:14:04.715Z,9.20
2022-08-02T08:15:04.695Z,13.10
2022-08-02T08:16:04.696Z,10.50
2022-08-02T08:17:04.697Z,14.90
2022-08-02T08:18:04.678Z,10.50
2022-08-02T08:19:04.657Z,13.40
2022-08-02T08:20:04.649Z,9.40
2022-08-02T08:21:04.637Z,10.30
2022-08-02T08:22:04.659Z,11.60
2022-08-02T08:23:04.618Z,9.10
2022-08-02T08:24:04.609Z,7.60
2022-08-02T08:25:04.622Z,6.30
2022-08-02T08:26:04.594Z,11.50
2022-08-02T08:27:04.599Z,7.50
2022-08-02T08:28:04.560Z,7.80
2022-08-02T08:29:04.552Z,5.30
2022-08-02T08:30:04.541Z,7.10
2022-08-02T08:31:04.531Z,7.00
2022-08-02T08:32:04.542Z,6.30
2022-08-02T08:33:04.551Z,11.50
2022-08-02T08:34:04.503Z,6.70
2022-08-02T08:35:04.484Z,10.00
2022-08-02T08:36:04.493Z,9.30
2022-08-02T08:37:04.493Z,5.10
2022-08-02T08:38:07.730Z,4.50
2022-08-02T08:39:04.455Z,10.40
2022-08-02T08:40:04.436Z,17.50
2022-08-02T08:41:04.427Z,13.90
2022-08-02T08:42:04.418Z,8.90
2022-08-02T08:43:04.424Z,8.20
2022-08-02T08:44:04.397Z,9.80
2022-08-02T08:45:04.383Z,6.90
2022-08-02T08:46:04.378Z,7.00
2022-08-02T08:47:04.359Z,12.80
2022-08-02T08:48:04.378Z,9.10
2022-08-02T08:49:04.381Z,8.20
2022-08-02T08:50:04.329Z,10.70
2022-08-02T08:51:04.321Z,5.30
2022-08-02T08:52:04.322Z,6.20
2022-08-02T08:53:04.323Z,4.50
2022-08-02T08:54:04.293Z,10.80
2022-08-02T08:55:04.288Z,5.00
2022-08-02T08:56:04.270Z,4.80
2022-08-02T08:57:04.254Z,7.90
2022-08-02T08:58:04.273Z,5.80
2022-08-02T08:59:04.235Z,2.80
2022-08-02T09:00:04.225Z,5.20
2022-08-02T09:01:04.304Z,4.20
2022-08-02T09:02:17.795Z,4.50
2022-08-02T09:03:05.249Z,3.50
2022-08-02T09:04:04.186Z,10.60
2022-08-02T09:05:04.167Z,4.90
2022-08-02T09:06:05.091Z,2.70
2022-08-02T09:07:04.157Z,4.00
2022-08-02T09:08:04.187Z,5.90
2022-08-02T09:09:04.138Z,7.50
2022-08-02T09:10:04.119Z,4.40
2022-08-02T09:11:04.108Z,4.70
2022-08-02T09:12:04.101Z,4.10
2022-08-02T09:13:04.202Z,9.20
2022-08-02T09:14:05.080Z,4.00
2022-08-02T09:15:04.069Z,8.60
2022-08-02T09:16:13.028Z,4.70
2022-08-02T09:17:05.042Z,2.50
2022-08-02T09:18:04.061Z,4.00
2022-08-02T09:19:07.724Z,5.60
2022-08-02T09:20:04.013Z,6.40
2022-08-02T09:21:04.537Z,6.50
2022-08-02T09:22:04.004Z,5.80
2022-08-02T09:23:04.004Z,8.00
2022-08-02T09:24:03.993Z,5.20
2022-08-02T09:25:03.957Z,7.10
2022-08-02T09:26:07.374Z,3.60
2022-08-02T09:27:03.937Z,7.40
2022-08-02T09:28:03.967Z,4.50
2022-08-02T09:29:03.919Z,4.00
2022-08-02T09:30:12.685Z,6.50
2022-08-02T09:31:04.908Z,3.50
2022-08-02T09:32:03.892Z,2.60
2022-08-02T09:33:05.522Z,6.00
2022-08-02T09:34:03.878Z,4.00
2022-08-02T09:35:03.858Z,6.50
2022-08-02T09:36:05.865Z,6.00
2022-08-02T09:37:03.848Z,6.80
2022-08-02T09:38:03.852Z,2.60
2022-08-02T09:39:03.812Z,5.10
2022-08-02T09:40:03.813Z,4.80
2022-08-02T09:41:03.793Z,4.40
2022-08-02T09:42:03.792Z,6.10
2022-08-02T09:43:03.803Z,2.60
2022-08-02T09:44:06.451Z,4.90
2022-08-02T09:45:03.756Z,4.70
2022-08-02T09:46:03.758Z,3.60
2022-08-02T09:47:03.736Z,5.90
2022-08-02T09:48:03.754Z,2.60
2022-08-02T09:49:03.771Z,3.70
2022-08-02T09:50:03.718Z,5.20
2022-08-02T09:51:03.707Z,5.20
2022-08-02T09:52:03.688Z,3.90
2022-08-02T09:53:03.701Z,2.60
2022-08-02T09:54:08.921Z,4.00
2022-08-02T09:55:04.651Z,4.70
2022-08-02T09:56:03.650Z,5.40
2022-08-02T09:57:03.640Z,3.60
2022-08-02T09:58:03.651Z,4.60
2022-08-02T09:59:03.614Z,3.80
2022-08-02T10:00:03.602Z,9.40
2022-08-02T10:01:03.712Z,2.60
2022-08-02T10:02:17.785Z,4.00
2022-08-02T10:03:04.593Z,1.70
2022-08-02T10:04:03.579Z,2.40
2022-08-02T10:05:03.551Z,6.10
2022-08-02T10:06:03.563Z,6.00
2022-08-02T10:07:03.546Z,5.90
2022-08-02T10:08:03.557Z,3.10
2022-08-02T10:09:03.512Z,3.40
2022-08-02T10:10:03.509Z,6.70
2022-08-02T10:11:03.737Z,3.40
2022-08-02T10:12:03.665Z,4.10
2022-08-02T10:13:03.498Z,2.40
2022-08-02T10:14:03.459Z,2.70
2022-08-02T10:15:03.449Z,3.20
2022-08-02T10:16:03.483Z,5.20
2022-08-02T10:17:03.439Z,7.40
2022-08-02T10:18:12.972Z,3.90
2022-08-02T10:19:04.409Z,2.40
2022-08-02T10:20:05.021Z,4.30
2022-08-02T10:21:03.383Z,4.40
2022-08-02T10:22:03.382Z,2.70
2022-08-02T10:23:03.391Z,3.80
2022-08-02T10:24:03.363Z,2.80
2022-08-02T10:25:03.345Z,2.80
2022-08-02T10:26:03.356Z,3.00
2022-08-02T10:27:03.324Z,2.60
2022-08-02T10:28:05.536Z,6.40
2022-08-02T10:29:03.305Z,3.40
2022-08-02T10:30:03.298Z,1.50
2022-08-02T10:31:03.871Z,4.10
2022-08-02T10:32:03.279Z,2.60
2022-08-02T10:33:03.287Z,4.10
2022-08-02T10:34:03.258Z,2.80
2022-08-02T10:35:19.738Z,2.90
2022-08-02T10:36:07.351Z,1.90
2022-08-02T10:37:03.228Z,3.40
2022-08-02T10:38:03.249Z,4.20
2022-08-02T10:39:03.210Z,3.50
2022-08-02T10:40:03.204Z,3.90
2022-08-02T10:41:03.193Z,6.20
2022-08-02T10:42:03.183Z,1.70
2022-08-02T10:43:03.190Z,3.70
2022-08-02T10:44:03.162Z,3.90
2022-08-02T10:45:03.150Z,3.30
2022-08-02T10:46:03.149Z,4.20
2022-08-02T10:47:03.124Z,8.80
2022-08-02T10:48:03.144Z,2.50
2022-08-02T10:49:23.878Z,3.20
2022-08-02T10:50:04.144Z,1.90
2022-08-02T10:51:03.085Z,1.40
2022-08-02T10:52:03.113Z,2.00
2022-08-02T10:53:03.086Z,3.90
2022-08-02T10:54:03.057Z,1.40
2022-08-02T10:55:03.047Z,1.90
2022-08-02T10:56:04.058Z,2.20
2022-08-02T10:57:03.028Z,3.60
2022-08-02T10:58:03.039Z,1.50
2022-08-02T10:59:03.001Z,2.00
2022-08-02T11:00:02.999Z,4.90
2022-08-02T11:01:03.047Z,1.00
2022-08-02T11:02:02.981Z,2.30
2022-08-02T11:03:03.001Z,6.80
2022-08-02T11:04:07.075Z,3.60
2022-08-02T11:05:03.952Z,2.50
2022-08-02T11:06:02.935Z,3.00
2022-08-02T11:07:02.933Z,2.30
2022-08-02T11:08:02.935Z,1.20
2022-08-02T11:09:04.427Z,4.10
2022-08-02T11:10:02.902Z,3.40
2022-08-02T11:11:02.893Z,1.40
2022-08-02T11:12:02.895Z,3.20
2022-08-02T11:13:02.896Z,1.00
2022-08-02T11:14:02.898Z,0.60
2022-08-02T11:15:02.854Z,1.90
2022-08-02T11:16:06.511Z,1.10
2022-08-02T11:17:03.829Z,3.70
2022-08-02T11:18:02.819Z,1.40
2022-08-02T11:19:02.829Z,4.80
2022-08-02T11:20:02.804Z,2.30
2022-08-02T11:21:02.798Z,5.10
2022-08-02T11:22:02.781Z,1.70
2022-08-02T11:23:02.773Z,2.10
2022-08-02T11:24:02.782Z,4.20
2022-08-02T11:25:02.752Z,1.20
2022-08-02T11:26:10.730Z,0.70
2022-08-02T11:27:03.733Z,1.80
2022-08-02T11:28:02.723Z,1.40
2022-08-02T11:29:02.740Z,1.70
2022-08-02T11:30:02.707Z,11.80
2022-08-02T11:31:03.096Z,7.60
2022-08-02T11:32:02.688Z,9.50
2022-08-02T11:33:02.689Z,0.90
2022-08-02T11:34:05.388Z,3.20
2022-08-02T11:35:03.657Z,3.60
2022-08-02T11:36:02.639Z,1.10
2022-08-02T11:37:02.642Z,4.00
2022-08-02T11:38:02.625Z,0.90
2022-08-02T11:39:02.670Z,4.90
2022-08-02T11:40:02.612Z,1.40
2022-08-02T11:41:06.160Z,1.40
2022-08-02T11:42:03.581Z,1.70
2022-08-02T11:43:02.579Z,1.40
2022-08-02T11:44:02.589Z,1.80
2022-08-02T11:45:02.552Z,1.20
2022-08-02T11:46:02.548Z,1.60
2022-08-02T11:47:02.545Z,10.30
2022-08-02T11:48:02.523Z,1.20
2022-08-02T11:49:02.564Z,2.00
2022-08-02T11:50:03.504Z,3.40
2022-08-02T11:51:02.495Z,4.60
2022-08-02T11:52:02.494Z,6.50
2022-08-02T11:53:02.476Z,1.50
2022-08-02T11:54:02.487Z,7.40
2022-08-02T11:55:02.458Z,2.50
2022-08-02T11:56:02.446Z,1.20
2022-08-02T11:57:02.439Z,1.40
2022-08-02T11:58:04.161Z,5.60
2022-08-02T11:59:02.438Z,4.30
2022-08-02T12:00:02.410Z,3.70
2022-08-02T12:01:02.401Z,8.20
2022-08-02T12:02:02.391Z,3.80
2022-08-02T12:03:02.417Z,1.90
2022-08-02T12:04:02.382Z,3.70
2022-08-02T12:05:02.362Z,4.80
2022-08-02T12:06:06.353Z,2.80
2022-08-02T12:07:02.342Z,4.60
2022-08-02T12:08:02.330Z,2.50
2022-08-02T12:09:02.344Z,9.10
2022-08-02T12:10:02.304Z,6.30
2022-08-02T12:11:02.298Z,11.80
2022-08-02T12:12:02.286Z,3.60
2022-08-02T12:13:02.289Z,7.50
2022-08-02T12:14:02.291Z,3.50
2022-08-02T12:15:02.257Z,1.90
2022-08-02T12:16:05.922Z,1.20
2022-08-02T12:17:03.239Z,4.50
2022-08-02T12:18:02.228Z,1.60
2022-08-02T12:19:02.249Z,4.50
2022-08-02T12:20:02.208Z,2.20
2022-08-02T12:21:02.206Z,1.90
2022-08-02T12:22:02.181Z,1.40
2022-08-02T12:23:02.183Z,1.80
2022-08-02T12:24:02.181Z,7.60
2022-08-02T12:25:02.165Z,3.70
2022-08-02T12:26:02.143Z,2.80
2022-08-02T12:27:02.142Z,1.40
2022-08-02T12:28:02.134Z,6.40
2022-08-02T12:29:02.145Z,4.70
2022-08-02T12:30:02.126Z,4.10
2022-08-02T12:31:02.104Z,2.00
2022-08-02T12:32:02.094Z,3.00
2022-08-02T12:33:02.086Z,2.00
2022-08-02T12:34:02.088Z,2.20
2022-08-02T12:35:02.067Z,11.00
2022-08-02T12:36:02.065Z,2.80
2022-08-02T12:37:02.047Z,4.10
2022-08-02T12:38:02.032Z,0.90
2022-08-02T12:39:02.049Z,2.30
2022-08-02T12:40:02.020Z,4.20
2022-08-02T12:41:02.013Z,4.40
2022-08-02T12:42:02.991Z,4.70
2022-08-02T12:43:01.982Z,1.00
2022-08-02T12:44:01.993Z,2.80
2022-08-02T12:45:01.964Z,3.20
2022-08-02T12:46:01.964Z,4.60
2022-08-02T12:47:01.973Z,4.80
2022-08-02T12:48:01.933Z,4.10
2022-08-02T12:49:17.456Z,5.60
2022-08-02T12:50:02.948Z,2.50
2022-08-02T12:51:01.904Z,1.40
2022-08-02T12:52:04.999Z,3.10
2022-08-02T12:53:02.896Z,2.90
2022-08-02T12:54:01.895Z,5.30
2022-08-02T12:55:01.867Z,2.10
2022-08-02T12:56:03.653Z,2.80
2022-08-02T12:57:02.580Z,0.70
2022-08-02T12:58:01.828Z,6.70
2022-08-02T12:59:01.839Z,5.70
2022-08-02T13:00:01.809Z,5.90
2022-08-02T13:01:01.821Z,2.30
2022-08-02T13:02:01.951Z,2.30
2022-08-02T13:03:01.780Z,7.40
2022-08-02T13:04:10.773Z,3.80
2022-08-02T13:05:02.979Z,2.40
2022-08-02T13:06:16.980Z,4.10
2022-08-02T13:07:03.012Z,1.80
2022-08-02T13:08:01.723Z,3.90
2022-08-02T13:09:01.744Z,4.20
2022-08-02T13:10:03.192Z,5.60
2022-08-02T13:11:01.715Z,7.10
2022-08-02T13:12:01.697Z,3.40